sensor_id;sensor_type;location;lat;lon;timestamp;pressure;altitude;pressure_sealevel;temperature;humidity
68628;BME280;55611;48.602;9.490;2022-07-06T00:00:51;97440;;;21.3;53.5
68628;BME280;55611;48.602;9.490;2022-07-06T00:03:22;97450;;;21.3;53.5
68628;BME280;55611;48.602;9.490;2022-07-06T00:05:53;97450;;;21.3;53.5
68628;BME280;55611;48.602;9.490;2022-07-06T00:08:23;97450;;;21.3;53.5
68628;BME280;55611;48.602;9.490;2022-07-06T00:10:54;97460;;;21.2;53.5
68628;BME280;55611;48.602;9.490;2022-07-06T00:13:25;97450;;;21.2;53.5
68628;BME280;55611;48.602;9.490;2022-07-06T00:15:56;97450;;;21.1;53.5
68628;BME280;55611;48.602;9.490;2022-07-06T00:18:27;97450;;;21.1;53.5
68628;BME280;55611;48.602;9.490;2022-07-06T00:20:57;97450;;;21.1;53.5
68628;BME280;55611;48.602;9.490;2022-07-06T00:23:28;97450;;;21;53.5
68628;BME280;55611;48.602;9.490;2022-07-06T00:25:59;97450;;;20.9;53.5
68628;BME280;55611;48.602;9.490;2022-07-06T00:28:30;97450;;;20.9;53.5
68628;BME280;55611;48.602;9.490;2022-07-06T00:31:00;97450;;;20.9;53.5
68628;BME280;55611;48.602;9.490;2022-07-06T00:33:31;97450;;;20.8;53.5
68628;BME280;55611;48.602;9.490;2022-07-06T00:36:02;97460;;;20.8;53.5
68628;BME280;55611;48.602;9.490;2022-07-06T00:38:33;97460;;;20.7;53.5
68628;BME280;55611;48.602;9.490;2022-07-06T00:41:04;97460;;;20.7;53.5
68628;BME280;55611;48.602;9.490;2022-07-06T00:43:50;97460;;;20.6;53.5
68628;BME280;55611;48.602;9.490;2022-07-06T00:46:05;97460;;;20.5;54
68628;BME280;55611;48.602;9.490;2022-07-06T00:48:36;97460;;;20.5;54
68628;BME280;55611;48.602;9.490;2022-07-06T00:51:07;97460;;;20.5;54
68628;BME280;55611;48.602;9.490;2022-07-06T00:53:37;97460;;;20.4;54
68628;BME280;55611;48.602;9.490;2022-07-06T00:56:08;97460;;;20.3;54
68628;BME280;55611;48.602;9.490;2022-07-06T00:58:39;97460;;;20.3;54
68628;BME280;55611;48.602;9.490;2022-07-06T01:01:10;97460;;;20.1;54
68628;BME280;55611;48.602;9.490;2022-07-06T01:03:41;97460;;;20;54
68628;BME280;55611;48.602;9.490;2022-07-06T01:06:11;97460;;;19.8;54
68628;BME280;55611;48.602;9.490;2022-07-06T01:08:42;97460;;;19.7;54
68628;BME280;55611;48.602;9.490;2022-07-06T01:11:13;97460;;;19.7;54
68628;BME280;55611;48.602;9.490;2022-07-06T01:13:44;97460;;;19.7;54
68628;BME280;55611;48.602;9.490;2022-07-06T01:16:14;97460;;;19.6;54
68628;BME280;55611;48.602;9.490;2022-07-06T01:18:45;97450;;;19.6;54.5
68628;BME280;55611;48.602;9.490;2022-07-06T01:21:16;97450;;;19.6;54.5
68628;BME280;55611;48.602;9.490;2022-07-06T01:23:47;97460;;;19.5;54.5
68628;BME280;55611;48.602;9.490;2022-07-06T01:26:19;97450;;;19.5;54.5
68628;BME280;55611;48.602;9.490;2022-07-06T01:28:49;97460;;;19.4;54.5
68628;BME280;55611;48.602;9.490;2022-07-06T01:31:20;97450;;;19.4;54.5
68628;BME280;55611;48.602;9.490;2022-07-06T01:33:50;97450;;;19.3;54.5
68628;BME280;55611;48.602;9.490;2022-07-06T01:36:21;97450;;;19.2;54.5
68628;BME280;55611;48.602;9.490;2022-07-06T01:38:53;97450;;;19.2;54.5
68628;BME280;55611;48.602;9.490;2022-07-06T01:41:22;97450;;;19.1;54.5
68628;BME280;55611;48.602;9.490;2022-07-06T01:43:53;97450;;;19.1;54.5
68628;BME280;55611;48.602;9.490;2022-07-06T01:46:24;97450;;;19.1;54.5
68628;BME280;55611;48.602;9.490;2022-07-06T01:48:55;97450;;;19;55
68628;BME280;55611;48.602;9.490;2022-07-06T01:51:25;97450;;;18.9;55
68628;BME280;55611;48.602;9.490;2022-07-06T01:53:56;97450;;;18.9;55
68628;BME280;55611;48.602;9.490;2022-07-06T01:56:27;97450;;;18.8;55
68628;BME280;55611;48.602;9.490;2022-07-06T01:58:58;97450;;;18.8;55
68628;BME280;55611;48.602;9.490;2022-07-06T02:01:29;97450;;;18.8;55
68628;BME280;55611;48.602;9.490;2022-07-06T02:03:59;97460;;;18.7;55
68628;BME280;55611;48.602;9.490;2022-07-06T02:06:30;97460;;;18.7;55
68628;BME280;55611;48.602;9.490;2022-07-06T02:09:01;97450;;;18.7;55
68628;BME280;55611;48.602;9.490;2022-07-06T02:11:31;97450;;;18.7;55
68628;BME280;55611;48.602;9.490;2022-07-06T02:14:02;97450;;;18.6;55
68628;BME280;55611;48.602;9.490;2022-07-06T02:16:33;97450;;;18.6;55
68628;BME280;55611;48.602;9.490;2022-07-06T02:19:04;97450;;;18.6;55
68628;BME280;55611;48.602;9.490;2022-07-06T02:21:35;97450;;;18.6;55
68628;BME280;55611;48.602;9.490;2022-07-06T02:24:05;97450;;;18.5;55.5
68628;BME280;55611;48.602;9.490;2022-07-06T02:26:36;97450;;;18.6;55.5
68628;BME280;55611;48.602;9.490;2022-07-06T02:29:07;97450;;;18.5;55.5
68628;BME280;55611;48.602;9.490;2022-07-06T02:31:38;97450;;;18.5;55.5
68628;BME280;55611;48.602;9.490;2022-07-06T02:34:08;97450;;;18.5;55.5
68628;BME280;55611;48.602;9.490;2022-07-06T02:36:39;97460;;;18.5;55.5
68628;BME280;55611;48.602;9.490;2022-07-06T02:39:10;97460;;;18.5;55.5
68628;BME280;55611;48.602;9.490;2022-07-06T02:41:41;97460;;;18.5;55.5
68628;BME280;55611;48.602;9.490;2022-07-06T02:44:12;97460;;;18.5;55.5
68628;BME280;55611;48.602;9.490;2022-07-06T02:46:42;97460;;;18.4;55.5
68628;BME280;55611;48.602;9.490;2022-07-06T02:49:13;97460;;;18.4;55.5
68628;BME280;55611;48.602;9.490;2022-07-06T02:51:44;97470;;;18.3;55.5
68628;BME280;55611;48.602;9.490;2022-07-06T02:54:15;97470;;;18.2;55.5
68628;BME280;55611;48.602;9.490;2022-07-06T02:56:45;97470;;;18.2;55.5
68628;BME280;55611;48.602;9.490;2022-07-06T02:59:16;97470;;;18.1;55.5
68628;BME280;55611;48.602;9.490;2022-07-06T03:01:47;97480;;;18.2;55.5
68628;BME280;55611;48.602;9.490;2022-07-06T03:04:18;97470;;;18.2;56
68628;BME280;55611;48.602;9.490;2022-07-06T03:06:49;97470;;;18.1;56
68628;BME280;55611;48.602;9.490;2022-07-06T03:09:19;97470;;;18.1;56
68628;BME280;55611;48.602;9.490;2022-07-06T03:11:50;97480;;;18.1;56
68628;BME280;55611;48.602;9.490;2022-07-06T03:14:21;97480;;;18.1;56
68628;BME280;55611;48.602;9.490;2022-07-06T03:16:52;97480;;;18.1;56
68628;BME280;55611;48.602;9.490;2022-07-06T03:19:22;97490;;;18.1;56
68628;BME280;55611;48.602;9.490;2022-07-06T03:21:53;97490;;;18.1;56
68628;BME280;55611;48.602;9.490;2022-07-06T03:24:24;97490;;;18.1;56
68628;BME280;55611;48.602;9.490;2022-07-06T03:26:55;97490;;;18;56
68628;BME280;55611;48.602;9.490;2022-07-06T03:29:26;97500;;;18;56
68628;BME280;55611;48.602;9.490;2022-07-06T03:31:56;97500;;;18.1;56
68628;BME280;55611;48.602;9.490;2022-07-06T03:34:27;97500;;;18;56
68628;BME280;55611;48.602;9.490;2022-07-06T03:36:58;97500;;;18;56
68628;BME280;55611;48.602;9.490;2022-07-06T03:39:29;97510;;;18.1;56
68628;BME280;55611;48.602;9.490;2022-07-06T03:41:59;97500;;;18.1;56
68628;BME280;55611;48.602;9.490;2022-07-06T03:44:30;97500;;;18.1;56
68628;BME280;55611;48.602;9.490;2022-07-06T03:47:01;97500;;;18.2;56
68628;BME280;55611;48.602;9.490;2022-07-06T03:49:32;97500;;;18.3;56
68628;BME280;55611;48.602;9.490;2022-07-06T03:52:02;97500;;;18.3;56
68628;BME280;55611;48.602;9.490;2022-07-06T03:54:33;97490;;;18.3;56
68628;BME280;55611;48.602;9.490;2022-07-06T03:57:04;97500;;;18.3;56
68628;BME280;55611;48.602;9.490;2022-07-06T03:59:35;97500;;;18.4;56
68628;BME280;55611;48.602;9.490;2022-07-06T04:02:06;97500;;;18.5;56
68628;BME280;55611;48.602;9.490;2022-07-06T04:04:36;97500;;;18.6;56
68628;BME280;55611;48.602;9.490;2022-07-06T04:07:07;97500;;;18.6;56
68628;BME280;55611;48.602;9.490;2022-07-06T04:09:38;97500;;;18.7;56
68628;BME280;55611;48.602;9.490;2022-07-06T04:12:09;97500;;;18.8;56
68628;BME280;55611;48.602;9.490;2022-07-06T04:14:39;97500;;;18.9;56
68628;BME280;55611;48.602;9.490;2022-07-06T04:17:10;97500;;;19.1;56
68628;BME280;55611;48.602;9.490;2022-07-06T04:19:41;97500;;;19.3;56
68628;BME280;55611;48.602;9.490;2022-07-06T04:22:12;97500;;;19.5;55.5
68628;BME280;55611;48.602;9.490;2022-07-06T04:24:42;97500;;;19.7;55.5
68628;BME280;55611;48.602;9.490;2022-07-06T04:27:13;97500;;;20;55.5
68628;BME280;55611;48.602;9.490;2022-07-06T04:29:44;97500;;;20.2;55.5
68628;BME280;55611;48.602;9.490;2022-07-06T04:32:15;97510;;;20.4;55.5
68628;BME280;55611;48.602;9.490;2022-07-06T04:34:46;97500;;;20.6;55.5
68628;BME280;55611;48.602;9.490;2022-07-06T04:37:16;97510;;;20.8;55.5
68628;BME280;55611;48.602;9.490;2022-07-06T04:39:47;97510;;;20.9;55.5
68628;BME280;55611;48.602;9.490;2022-07-06T04:42:18;97510;;;21;55.5
68628;BME280;55611;48.602;9.490;2022-07-06T04:44:49;97520;;;21.1;55.5
68628;BME280;55611;48.602;9.490;2022-07-06T04:47:19;97520;;;21.2;55.5
68628;BME280;55611;48.602;9.490;2022-07-06T04:49:50;97520;;;21.3;55
68628;BME280;55611;48.602;9.490;2022-07-06T04:54:53;97520;;;21.4;55
68628;BME280;55611;48.602;9.490;2022-07-06T04:57:23;97520;;;21.4;55.5
68628;BME280;55611;48.602;9.490;2022-07-06T04:59:53;97520;;;21.5;55.5
68628;BME280;55611;48.602;9.490;2022-07-06T05:02:24;97520;;;21.5;55.5
68628;BME280;55611;48.602;9.490;2022-07-06T05:04:55;97530;;;21.6;55.5
68628;BME280;55611;48.602;9.490;2022-07-06T05:07:26;97530;;;21.5;55.5
68628;BME280;55611;48.602;9.490;2022-07-06T05:09:56;97530;;;21.6;55.5
68628;BME280;55611;48.602;9.490;2022-07-06T05:12:27;97530;;;21.7;55.5
68628;BME280;55611;48.602;9.490;2022-07-06T05:14:58;97530;;;21.7;55.5
68628;BME280;55611;48.602;9.490;2022-07-06T05:17:29;97530;;;21.6;55.5
68628;BME280;55611;48.602;9.490;2022-07-06T05:20:00;97540;;;21.7;55.5
68628;BME280;55611;48.602;9.490;2022-07-06T05:22:30;97540;;;21.7;55.5
68628;BME280;55611;48.602;9.490;2022-07-06T05:25:01;97540;;;21.7;55.5
68628;BME280;55611;48.602;9.490;2022-07-06T05:27:32;97540;;;21.6;55.5
68628;BME280;55611;48.602;9.490;2022-07-06T05:30:03;97540;;;21.5;55.5
68628;BME280;55611;48.602;9.490;2022-07-06T05:32:33;97540;;;21.4;55.5
68628;BME280;55611;48.602;9.490;2022-07-06T05:35:04;97540;;;21.4;55.5
68628;BME280;55611;48.602;9.490;2022-07-06T05:37:35;97540;;;21.5;55.5
68628;BME280;55611;48.602;9.490;2022-07-06T05:40:06;97540;;;21.4;55.5
68628;BME280;55611;48.602;9.490;2022-07-06T05:42:36;97550;;;21.4;55.5
68628;BME280;55611;48.602;9.490;2022-07-06T05:45:07;97540;;;21.3;55.5
68628;BME280;55611;48.602;9.490;2022-07-06T05:47:38;97540;;;21.3;55.5
68628;BME280;55611;48.602;9.490;2022-07-06T05:50:09;97540;;;21.2;56
68628;BME280;55611;48.602;9.490;2022-07-06T05:52:40;97550;;;21.2;56
68628;BME280;55611;48.602;9.490;2022-07-06T05:55:11;97550;;;21.3;55.5
68628;BME280;55611;48.602;9.490;2022-07-06T05:57:41;97550;;;21.3;55.5
68628;BME280;55611;48.602;9.490;2022-07-06T06:00:12;97550;;;21.3;55.5
68628;BME280;55611;48.602;9.490;2022-07-06T06:02:43;97550;;;21.3;55.5
68628;BME280;55611;48.602;9.490;2022-07-06T06:05:14;97560;;;21.3;55.5
68628;BME280;55611;48.602;9.490;2022-07-06T06:07:45;97560;;;21.3;55.5
68628;BME280;55611;48.602;9.490;2022-07-06T06:10:15;97560;;;21.2;55.5
68628;BME280;55611;48.602;9.490;2022-07-06T06:12:46;97560;;;21.2;55.5
68628;BME280;55611;48.602;9.490;2022-07-06T06:15:17;97570;;;21.2;55.5
68628;BME280;55611;48.602;9.490;2022-07-06T06:17:47;97560;;;21.3;55.5
68628;BME280;55611;48.602;9.490;2022-07-06T06:20:18;97570;;;21.3;55.5
68628;BME280;55611;48.602;9.490;2022-07-06T06:22:50;97570;;;21.4;55.5
68628;BME280;55611;48.602;9.490;2022-07-06T06:25:20;97570;;;21.4;55.5
68628;BME280;55611;48.602;9.490;2022-07-06T06:27:50;97570;;;21.4;55.5
68628;BME280;55611;48.602;9.490;2022-07-06T06:30:21;97570;;;21.4;55.5
68628;BME280;55611;48.602;9.490;2022-07-06T06:33:04;97570;;;21.3;55.5
68628;BME280;55611;48.602;9.490;2022-07-06T06:35:23;97570;;;21.3;55.5
68628;BME280;55611;48.602;9.490;2022-07-06T06:37:54;97570;;;21.3;55.5
68628;BME280;55611;48.602;9.490;2022-07-06T06:40:24;97570;;;21.4;55.5
68628;BME280;55611;48.602;9.490;2022-07-06T06:42:55;97570;;;21.5;55.5
68628;BME280;55611;48.602;9.490;2022-07-06T06:45:26;97580;;;21.5;55.5
68628;BME280;55611;48.602;9.490;2022-07-06T06:47:57;97580;;;21.5;55.5
68628;BME280;55611;48.602;9.490;2022-07-06T06:50:27;97570;;;21.5;55.5
68628;BME280;55611;48.602;9.490;2022-07-06T06:52:58;97570;;;21.6;55.5
68628;BME280;55611;48.602;9.490;2022-07-06T06:55:29;97570;;;21.5;55.5
68628;BME280;55611;48.602;9.490;2022-07-06T06:58:00;97570;;;21.4;55.5
68628;BME280;55611;48.602;9.490;2022-07-06T07:00:31;97570;;;21.4;55.5
68628;BME280;55611;48.602;9.490;2022-07-06T07:03:01;97570;;;21.5;55.5
68628;BME280;55611;48.602;9.490;2022-07-06T07:05:32;97570;;;21.5;55.5
68628;BME280;55611;48.602;9.490;2022-07-06T07:08:03;97570;;;21.5;55.5
68628;BME280;55611;48.602;9.490;2022-07-06T07:10:34;97580;;;21.6;55.5
68628;BME280;55611;48.602;9.490;2022-07-06T07:13:04;97580;;;21.5;55.5
68628;BME280;55611;48.602;9.490;2022-07-06T07:15:35;97580;;;21.6;55
68628;BME280;55611;48.602;9.490;2022-07-06T07:18:06;97570;;;21.6;55
68628;BME280;55611;48.602;9.490;2022-07-06T07:20:37;97570;;;21.7;55
68628;BME280;55611;48.602;9.490;2022-07-06T07:23:07;97570;;;21.6;55
68628;BME280;55611;48.602;9.490;2022-07-06T07:25:38;97570;;;21.7;55
68628;BME280;55611;48.602;9.490;2022-07-06T07:28:09;97570;;;21.7;55
68628;BME280;55611;48.602;9.490;2022-07-06T07:30:40;97570;;;21.6;55.5
68628;BME280;55611;48.602;9.490;2022-07-06T07:33:11;97570;;;21.7;55.5
68628;BME280;55611;48.602;9.490;2022-07-06T07:35:41;97560;;;21.9;55.5
68628;BME280;55611;48.602;9.490;2022-07-06T07:38:12;97560;;;21.8;55
68628;BME280;55611;48.602;9.490;2022-07-06T07:40:43;97560;;;21.9;55
68628;BME280;55611;48.602;9.490;2022-07-06T07:43:14;97560;;;22;55
68628;BME280;55611;48.602;9.490;2022-07-06T07:45:45;97560;;;22;55
68628;BME280;55611;48.602;9.490;2022-07-06T07:48:15;97550;;;22.1;55
68628;BME280;55611;48.602;9.490;2022-07-06T07:50:46;97550;;;22.1;55
68628;BME280;55611;48.602;9.490;2022-07-06T07:53:17;97550;;;22;55
68628;BME280;55611;48.602;9.490;2022-07-06T07:55:48;97560;;;22.1;55
68628;BME280;55611;48.602;9.490;2022-07-06T07:58:18;97550;;;22.1;55
68628;BME280;55611;48.602;9.490;2022-07-06T08:00:49;97550;;;22.1;55
68628;BME280;55611;48.602;9.490;2022-07-06T08:03:20;97550;;;22.1;55
68628;BME280;55611;48.602;9.490;2022-07-06T08:05:51;97550;;;22.2;55
68628;BME280;55611;48.602;9.490;2022-07-06T08:08:21;97550;;;22.2;55
68628;BME280;55611;48.602;9.490;2022-07-06T08:10:52;97560;;;22.2;55
68628;BME280;55611;48.602;9.490;2022-07-06T08:13:23;97560;;;22.2;55
68628;BME280;55611;48.602;9.490;2022-07-06T08:15:54;97560;;;22.4;55
68628;BME280;55611;48.602;9.490;2022-07-06T08:18:25;97560;;;22.4;55
68628;BME280;55611;48.602;9.490;2022-07-06T08:20:55;97560;;;22.5;55
68628;BME280;55611;48.602;9.490;2022-07-06T08:23:26;97560;;;22.6;55
68628;BME280;55611;48.602;9.490;2022-07-06T08:25:57;97560;;;22.6;55
68628;BME280;55611;48.602;9.490;2022-07-06T08:28:28;97560;;;22.6;54.5
68628;BME280;55611;48.602;9.490;2022-07-06T08:30:58;97560;;;22.6;54.5
68628;BME280;55611;48.602;9.490;2022-07-06T08:33:29;97560;;;22.6;54.5
68628;BME280;55611;48.602;9.490;2022-07-06T08:36:00;97550;;;22.7;54.5
68628;BME280;55611;48.602;9.490;2022-07-06T08:38:31;97550;;;22.8;54.5
68628;BME280;55611;48.602;9.490;2022-07-06T08:41:02;97550;;;23;54.5
68628;BME280;55611;48.602;9.490;2022-07-06T08:43:33;97550;;;23;54.5
68628;BME280;55611;48.602;9.490;2022-07-06T08:46:03;97550;;;23;54.5
68628;BME280;55611;48.602;9.490;2022-07-06T08:48:35;97550;;;23.1;54.5
68628;BME280;55611;48.602;9.490;2022-07-06T08:51:05;97550;;;23.2;54.5
68628;BME280;55611;48.602;9.490;2022-07-06T08:53:35;97560;;;23.3;54.5
68628;BME280;55611;48.602;9.490;2022-07-06T08:56:06;97550;;;23.3;54.5
68628;BME280;55611;48.602;9.490;2022-07-06T08:58:37;97550;;;23.4;54
68628;BME280;55611;48.602;9.490;2022-07-06T09:01:09;97560;;;23.5;54
68628;BME280;55611;48.602;9.490;2022-07-06T09:03:40;97550;;;23.5;54
68628;BME280;55611;48.602;9.490;2022-07-06T09:06:10;97560;;;23.6;54
68628;BME280;55611;48.602;9.490;2022-07-06T09:08:40;97560;;;23.6;54
68628;BME280;55611;48.602;9.490;2022-07-06T09:11:11;97560;;;23.6;54
68628;BME280;55611;48.602;9.490;2022-07-06T09:13:42;97560;;;23.4;54
68628;BME280;55611;48.602;9.490;2022-07-06T09:16:13;97560;;;23.4;54
68628;BME280;55611;48.602;9.490;2022-07-06T09:18:44;97560;;;23.5;54
68628;BME280;55611;48.602;9.490;2022-07-06T09:21:21;97560;;;23.5;54
68628;BME280;55611;48.602;9.490;2022-07-06T09:23:45;97560;;;23.5;54
68628;BME280;55611;48.602;9.490;2022-07-06T09:26:15;97560;;;23.6;54
68628;BME280;55611;48.602;9.490;2022-07-06T09:28:46;97560;;;23.5;54
68628;BME280;55611;48.602;9.490;2022-07-06T09:31:17;97560;;;23.6;54
68628;BME280;55611;48.602;9.490;2022-07-06T09:33:56;97570;;;23.6;54
68628;BME280;55611;48.602;9.490;2022-07-06T09:36:26;97570;;;23.7;54
68628;BME280;55611;48.602;9.490;2022-07-06T09:38:49;97570;;;23.7;54
68628;BME280;55611;48.602;9.490;2022-07-06T09:41:35;97570;;;23.7;54
68628;BME280;55611;48.602;9.490;2022-07-06T09:43:51;97560;;;23.8;54
68628;BME280;55611;48.602;9.490;2022-07-06T09:46:22;97570;;;23.9;54
68628;BME280;55611;48.602;9.490;2022-07-06T09:48:53;97570;;;23.9;54
68628;BME280;55611;48.602;9.490;2022-07-06T09:51:23;97570;;;23.9;54
68628;BME280;55611;48.602;9.490;2022-07-06T09:53:54;97580;;;23.9;54
68628;BME280;55611;48.602;9.490;2022-07-06T09:56:41;97570;;;24;54
68628;BME280;55611;48.602;9.490;2022-07-06T09:58:55;97580;;;24.1;54
68628;BME280;55611;48.602;9.490;2022-07-06T10:01:26;97570;;;24.1;54
68628;BME280;55611;48.602;9.490;2022-07-06T10:03:57;97580;;;24.2;54
68628;BME280;55611;48.602;9.490;2022-07-06T10:06:28;97570;;;24.2;54
68628;BME280;55611;48.602;9.490;2022-07-06T10:08:59;97570;;;24.3;54
68628;BME280;55611;48.602;9.490;2022-07-06T10:11:29;97580;;;24.4;53.5
68628;BME280;55611;48.602;9.490;2022-07-06T10:14:00;97580;;;24.4;54
68628;BME280;55611;48.602;9.490;2022-07-06T10:16:31;97580;;;24.3;54
68628;BME280;55611;48.602;9.490;2022-07-06T10:19:04;97570;;;24.3;53.5
68628;BME280;55611;48.602;9.490;2022-07-06T10:21:34;97570;;;24.3;53.5
68628;BME280;55611;48.602;9.490;2022-07-06T10:24:04;97580;;;24.3;53.5
68628;BME280;55611;48.602;9.490;2022-07-06T10:26:35;97580;;;24.3;53.5
68628;BME280;55611;48.602;9.490;2022-07-06T10:29:05;97580;;;24.4;53.5
68628;BME280;55611;48.602;9.490;2022-07-06T10:31:37;97580;;;24.5;53.5
68628;BME280;55611;48.602;9.490;2022-07-06T10:34:07;97570;;;24.6;53.5
68628;BME280;55611;48.602;9.490;2022-07-06T10:36:41;97570;;;24.6;53.5
68628;BME280;55611;48.602;9.490;2022-07-06T10:39:09;97570;;;24.7;53.5
68628;BME280;55611;48.602;9.490;2022-07-06T10:41:39;97570;;;24.7;53.5
68628;BME280;55611;48.602;9.490;2022-07-06T10:44:17;97580;;;24.8;53.5
68628;BME280;55611;48.602;9.490;2022-07-06T10:46:40;97580;;;24.8;53.5
68628;BME280;55611;48.602;9.490;2022-07-06T10:49:14;97580;;;25;53.5
68628;BME280;55611;48.602;9.490;2022-07-06T10:51:42;97580;;;25;53.5
68628;BME280;55611;48.602;9.490;2022-07-06T10:54:13;97580;;;25;53.5
68628;BME280;55611;48.602;9.490;2022-07-06T10:56:44;97580;;;25.1;53.5
68628;BME280;55611;48.602;9.490;2022-07-06T10:59:15;97580;;;25.1;53
68628;BME280;55611;48.602;9.490;2022-07-06T11:02:17;97570;;;25.1;53
68628;BME280;55611;48.602;9.490;2022-07-06T11:04:16;97570;;;25.1;53
68628;BME280;55611;48.602;9.490;2022-07-06T11:06:46;97570;;;25.1;53
68628;BME280;55611;48.602;9.490;2022-07-06T11:09:17;97570;;;25.2;53
68628;BME280;55611;48.602;9.490;2022-07-06T11:11:48;97560;;;25.2;53
68628;BME280;55611;48.602;9.490;2022-07-06T11:14:20;97560;;;25.3;53
68628;BME280;55611;48.602;9.490;2022-07-06T11:19:21;97560;;;25.4;53
68628;BME280;55611;48.602;9.490;2022-07-06T11:21:52;97560;;;25.4;53
68628;BME280;55611;48.602;9.490;2022-07-06T11:24:22;97560;;;25.4;53
68628;BME280;55611;48.602;9.490;2022-07-06T11:26:53;97560;;;25.5;53
68628;BME280;55611;48.602;9.490;2022-07-06T11:29:24;97550;;;25.4;53
68628;BME280;55611;48.602;9.490;2022-07-06T11:31:55;97560;;;25.4;53
68628;BME280;55611;48.602;9.490;2022-07-06T11:34:26;97560;;;25.5;53
68628;BME280;55611;48.602;9.490;2022-07-06T11:36:56;97550;;;25.2;53
68628;BME280;55611;48.602;9.490;2022-07-06T11:39:27;97550;;;25.1;53
68628;BME280;55611;48.602;9.490;2022-07-06T11:41:57;97550;;;25.1;53
68628;BME280;55611;48.602;9.490;2022-07-06T11:44:28;97550;;;25.2;53
68628;BME280;55611;48.602;9.490;2022-07-06T11:46:59;97550;;;25.2;53
68628;BME280;55611;48.602;9.490;2022-07-06T11:49:30;97540;;;25.3;53
68628;BME280;55611;48.602;9.490;2022-07-06T11:52:05;97540;;;25.3;53
68628;BME280;55611;48.602;9.490;2022-07-06T11:54:31;97540;;;25.3;53
68628;BME280;55611;48.602;9.490;2022-07-06T11:57:02;97540;;;25.4;53
68628;BME280;55611;48.602;9.490;2022-07-06T11:59:35;97530;;;25.5;53
68628;BME280;55611;48.602;9.490;2022-07-06T12:02:04;97530;;;25.7;53
68628;BME280;55611;48.602;9.490;2022-07-06T12:04:35;97530;;;25.8;53
68628;BME280;55611;48.602;9.490;2022-07-06T12:07:06;97520;;;25.7;53
68628;BME280;55611;48.602;9.490;2022-07-06T12:09:36;97520;;;25.8;53
68628;BME280;55611;48.602;9.490;2022-07-06T12:12:07;97520;;;25.9;52.5
68628;BME280;55611;48.602;9.490;2022-07-06T12:14:38;97520;;;25.8;52.5
68628;BME280;55611;48.602;9.490;2022-07-06T12:17:09;97520;;;25.8;52.5
68628;BME280;55611;48.602;9.490;2022-07-06T12:19:39;97520;;;25.7;52.5
68628;BME280;55611;48.602;9.490;2022-07-06T12:22:10;97520;;;25.8;52.5
68628;BME280;55611;48.602;9.490;2022-07-06T12:24:42;97510;;;25.7;52.5
68628;BME280;55611;48.602;9.490;2022-07-06T12:27:14;97510;;;25.7;52.5
68628;BME280;55611;48.602;9.490;2022-07-06T12:29:42;97520;;;25.8;52.5
68628;BME280;55611;48.602;9.490;2022-07-06T12:32:15;97520;;;25.8;52.5
68628;BME280;55611;48.602;9.490;2022-07-06T12:34:44;97500;;;25.9;52.5
68628;BME280;55611;48.602;9.490;2022-07-06T12:37:14;97500;;;26;52.5
68628;BME280;55611;48.602;9.490;2022-07-06T12:39:46;97500;;;26.2;52.5
68628;BME280;55611;48.602;9.490;2022-07-06T12:42:16;97500;;;26.3;52.5
68628;BME280;55611;48.602;9.490;2022-07-06T12:44:48;97500;;;26.1;52.5
68628;BME280;55611;48.602;9.490;2022-07-06T12:47:19;97500;;;25.9;52
68628;BME280;55611;48.602;9.490;2022-07-06T12:49:49;97510;;;25.7;52
68628;BME280;55611;48.602;9.490;2022-07-06T12:52:19;97500;;;25.6;52
68628;BME280;55611;48.602;9.490;2022-07-06T12:54:50;97510;;;25.6;52.5
68628;BME280;55611;48.602;9.490;2022-07-06T12:57:22;97500;;;25.5;52.5
68628;BME280;55611;48.602;9.490;2022-07-06T12:59:56;97510;;;25.5;52.5
68628;BME280;55611;48.602;9.490;2022-07-06T13:02:23;97510;;;25.5;52.5
68628;BME280;55611;48.602;9.490;2022-07-06T13:04:55;97510;;;25.4;52.5
68628;BME280;55611;48.602;9.490;2022-07-06T13:09:55;97520;;;25.4;52.5
68628;BME280;55611;48.602;9.490;2022-07-06T13:12:25;97520;;;25.5;52.5
68628;BME280;55611;48.602;9.490;2022-07-06T13:14:56;97520;;;25.6;52.5
68628;BME280;55611;48.602;9.490;2022-07-06T13:17:27;97520;;;25.6;52.5
68628;BME280;55611;48.602;9.490;2022-07-06T13:19:57;97520;;;25.6;52.5
68628;BME280;55611;48.602;9.490;2022-07-06T13:22:28;97510;;;25.6;52.5
68628;BME280;55611;48.602;9.490;2022-07-06T13:24:59;97510;;;25.6;52.5
68628;BME280;55611;48.602;9.490;2022-07-06T13:27:30;97510;;;25.5;52.5
68628;BME280;55611;48.602;9.490;2022-07-06T13:30:01;97510;;;25.4;52.5
68628;BME280;55611;48.602;9.490;2022-07-06T13:32:31;97510;;;25.1;52.5
68628;BME280;55611;48.602;9.490;2022-07-06T13:35:02;97510;;;25.2;52.5
68628;BME280;55611;48.602;9.490;2022-07-06T13:37:33;97510;;;25.4;52.5
68628;BME280;55611;48.602;9.490;2022-07-06T13:40:04;97510;;;25.6;52.5
68628;BME280;55611;48.602;9.490;2022-07-06T13:42:34;97490;;;25.6;52
68628;BME280;55611;48.602;9.490;2022-07-06T13:45:05;97500;;;25.6;52
68628;BME280;55611;48.602;9.490;2022-07-06T13:47:36;97500;;;25.5;52
68628;BME280;55611;48.602;9.490;2022-07-06T13:50:07;97500;;;25.6;52
68628;BME280;55611;48.602;9.490;2022-07-06T13:52:38;97500;;;25.7;52
68628;BME280;55611;48.602;9.490;2022-07-06T13:55:08;97500;;;25.6;52
68628;BME280;55611;48.602;9.490;2022-07-06T13:57:39;97500;;;25.5;52
68628;BME280;55611;48.602;9.490;2022-07-06T14:00:11;97500;;;25.6;52
68628;BME280;55611;48.602;9.490;2022-07-06T14:02:41;97500;;;25.7;52
68628;BME280;55611;48.602;9.490;2022-07-06T14:05:11;97490;;;25.7;52.5
68628;BME280;55611;48.602;9.490;2022-07-06T14:07:42;97490;;;25.8;52
68628;BME280;55611;48.602;9.490;2022-07-06T14:10:13;97480;;;25.9;52
68628;BME280;55611;48.602;9.490;2022-07-06T14:12:44;97490;;;26;52
68628;BME280;55611;48.602;9.490;2022-07-06T14:15:15;97490;;;26;52
68628;BME280;55611;48.602;9.490;2022-07-06T14:17:46;97480;;;26;52
68628;BME280;55611;48.602;9.490;2022-07-06T14:20:16;97480;;;26;52
68628;BME280;55611;48.602;9.490;2022-07-06T14:22:47;97480;;;25.9;52
68628;BME280;55611;48.602;9.490;2022-07-06T14:25:18;97490;;;25.8;52
68628;BME280;55611;48.602;9.490;2022-07-06T14:27:48;97490;;;25.6;52
68628;BME280;55611;48.602;9.490;2022-07-06T14:30:19;97490;;;25.4;52
68628;BME280;55611;48.602;9.490;2022-07-06T14:32:50;97480;;;25.3;52
68628;BME280;55611;48.602;9.490;2022-07-06T14:35:21;97480;;;25.3;52